Perez Atmospheric Data: 04/18/2019 Summary  Detailed Graphs  Station List

  Temperature     Wind Precipitation Visibility
Timestamp Air Wet
Bulb
Dew-
point
24-hr
Max
24-hr
Min
Relative
Humidity
Atmospheric
Pressure
Avg
Speed
Avg
Dir
Spot
Speed
Spot
Dir
Max
Speed
Max
Dir
  Rate Situation Start End 1 hr 3 hr 6 hr 12 hr 24 hr   Situation
Date Time °F °F °F °F °F % in Hg mph ° mph ° mph ° Y/N in/hr text Date Time Date Time in in in in in mi text
04/18/2019 12:00 AM 45.14 42.62 40.10 65.66 28.40 82.0 Not Reported 3.13 E 2.01 E 4.70 SE No 0.000 No Precipitation 04/16/2019 04:11 AM 04/16/2019 04:16 AM 0.000 0.000 0.000 0.000 0.000 Not Reported Not Reported
04/18/2019 12:05 AM 46.40 43.70 40.64 65.66 28.40 80.0 Not Reported 1.57 E 1.79 E 4.70 SE No 0.000 No Precipitation 04/16/2019 04:11 AM 04/16/2019 04:16 AM 0.000 0.000 0.000 0.000 0.000 Not Reported Not Reported
04/18/2019 12:10 AM 46.04 43.16 39.92 65.66 28.40 79.0 Not Reported 1.57 E 1.34 E 2.01 E No 0.000 No Precipitation 04/16/2019 04:11 AM 04/16/2019 04:16 AM 0.000 0.000 0.000 0.000 0.000 Not Reported Not Reported
04/18/2019 12:15 AM 43.88 41.72 39.38 65.66 28.40 83.0 Not Reported 2.24 E 2.24 SE 2.01 E No 0.000 No Precipitation 04/16/2019 04:11 AM 04/16/2019 04:16 AM 0.000 0.000 0.000 0.000 0.000 Not Reported Not Reported
04/18/2019 12:20 AM 41.72 39.74 37.40 65.66 28.40 84.0 Not Reported 3.58 SE 3.80 SE 3.80 SE No 0.000 No Precipitation 04/16/2019 04:11 AM 04/16/2019 04:16 AM 0.000 0.000 0.000 0.000 0.000 Not Reported Not Reported
04/18/2019 12:25 AM 42.80 41.00 39.20 65.66 28.40 87.0 Not Reported 3.80 SE 3.36 E 3.80 SE No 0.000 No Precipitation 04/16/2019 04:11 AM 04/16/2019 04:16 AM 0.000 0.000 0.000 0.000 0.000 Not Reported Not Reported
04/18/2019 12:30 AM 44.06 42.08 39.92 65.66 28.40 84.0 Not Reported 1.57 E 1.57 E 4.03 SE No 0.000 No Precipitation 04/16/2019 04:11 AM 04/16/2019 04:16 AM 0.000 0.000 0.000 0.000 0.000 Not Reported Not Reported
04/18/2019 12:35 AM 43.16 41.18 38.84 65.66 28.40 84.0 Not Reported 2.68 E 3.13 E 4.03 SE No 0.000 No Precipitation 04/16/2019 04:11 AM 04/16/2019 04:16 AM 0.000 0.000 0.000 0.000 0.000 Not Reported Not Reported
04/18/2019 12:40 AM 43.34 41.54 39.56 65.66 28.40 86.0 Not Reported 3.58 E 3.13 E 4.03 SE No 0.000 No Precipitation 04/16/2019 04:11 AM 04/16/2019 04:16 AM 0.000 0.000 0.000 0.000 0.000 Not Reported Not Reported
04/18/2019 12:45 AM 43.88 41.72 39.20 65.66 28.40 83.0 Not Reported 2.24 E 1.79 E 4.03 SE No 0.000 No Precipitation 04/16/2019 04:11 AM 04/16/2019 04:16 AM 0.000 0.000 0.000 0.000 0.000 Not Reported Not Reported
04/18/2019 12:50 AM 43.34 41.36 39.02 65.66 28.40 84.0 Not Reported 1.79 E 1.79 E 3.58 E No 0.000 No Precipitation 04/16/2019 04:11 AM 04/16/2019 04:16 AM 0.000 0.000 0.000 0.000 0.000 Not Reported Not Reported
04/18/2019 12:55 AM 42.98 41.00 38.84 65.66 28.40 85.0 Not Reported 1.79 E 2.24 NE 3.58 E No 0.000 No Precipitation 04/16/2019 04:11 AM 04/16/2019 04:16 AM 0.000 0.000 0.000 0.000 0.000 Not Reported Not Reported
04/18/2019 01:00 AM 42.44 40.46 38.48 65.66 28.40 85.0 Not Reported 2.24 E 2.24 E 2.46 E No 0.000 No Precipitation 04/16/2019 04:11 AM 04/16/2019 04:16 AM 0.000 0.000 0.000 0.000 0.000 Not Reported Not Reported
04/18/2019 01:05 AM 42.62 40.82 38.84 65.66 28.40 86.0 Not Reported 2.46 E 2.46 E 2.46 E No 0.000 No Precipitation 04/16/2019 04:11 AM 04/16/2019 04:16 AM 0.000 0.000 0.000 0.000 0.000 Not Reported Not Reported
04/18/2019 01:10 AM 42.26 40.82 39.02 65.66 28.40 87.0 Not Reported 1.79 NE 2.24 NE 2.46 E No 0.000 No Precipitation 04/16/2019 04:11 AM 04/16/2019 04:16 AM 0.000 0.000 0.000 0.000 0.000 Not Reported Not Reported
04/18/2019 01:15 AM 43.34 41.18 39.20 65.66 28.40 85.0 Not Reported 2.46 NE 2.46 NE 2.46 E No 0.000 No Precipitation 04/16/2019 04:11 AM 04/16/2019 04:16 AM 0.000 0.000 0.000 0.000 0.000 Not Reported Not Reported
04/18/2019 01:20 AM 44.06 41.90 39.38 65.66 28.40 83.0 Not Reported 2.68 N 2.46 N 3.13 N No 0.000 No Precipitation 04/16/2019 04:11 AM 04/16/2019 04:16 AM 0.000 0.000 0.000 0.000 0.000 Not Reported Not Reported
04/18/2019 01:25 AM 42.08 39.92 37.58 65.66 28.40 84.0 Not Reported 1.79 NE 1.57 NE 3.13 N No 0.000 No Precipitation 04/16/2019 04:11 AM 04/16/2019 04:16 AM 0.000 0.000 0.000 0.000 0.000 Not Reported Not Reported
04/18/2019 01:30 AM 41.18 39.56 37.76 65.66 28.40 87.0 Not Reported 1.34 NE 1.79 NE 2.68 N No 0.000 No Precipitation 04/16/2019 04:11 AM 04/16/2019 04:16 AM 0.000 0.000 0.000 0.000 0.000 Not Reported Not Reported
04/18/2019 01:35 AM 41.72 39.92 37.94 65.66 28.40 86.0 Not Reported 2.01 NE 2.01 NE 2.68 N No 0.000 No Precipitation 04/16/2019 04:11 AM 04/16/2019 04:16 AM 0.000 0.000 0.000 0.000 0.000 Not Reported Not Reported
04/18/2019 01:40 AM 42.08 40.28 38.30 65.66 28.40 86.0 Not Reported 2.46 NE 2.46 NE 2.46 NE No 0.000 No Precipitation 04/16/2019 04:11 AM 04/16/2019 04:16 AM 0.000 0.000 0.000 0.000 0.000 Not Reported Not Reported
04/18/2019 01:45 AM 41.36 40.10 38.12 65.66 28.40 87.0 Not Reported 2.46 NE 2.24 NE 2.46 NE No 0.000 No Precipitation 04/16/2019 04:11 AM 04/16/2019 04:16 AM 0.000 0.000 0.000 0.000 0.000 Not Reported Not Reported
04/18/2019 01:50 AM 41.72 40.10 38.30 65.66 28.40 87.0 Not Reported 2.46 NE 2.46 NE 2.91 NE No 0.000 No Precipitation 04/16/2019 04:11 AM 04/16/2019 04:16 AM 0.000 0.000 0.000 0.000 0.000 Not Reported Not Reported
04/18/2019 01:55 AM 42.26 40.28 38.12 65.66 28.40 85.0 Not Reported 2.24 NE 2.01 NE 2.91 NE No 0.000 No Precipitation 04/16/2019 04:11 AM 04/16/2019 04:16 AM 0.000 0.000 0.000 0.000 0.000 Not Reported Not Reported
04/18/2019 02:00 AM 41.90 39.74 37.40 65.66 28.40 84.0 Not Reported 2.91 NE 2.91 N 3.13 NE No 0.000 No Precipitation 04/16/2019 04:11 AM 04/16/2019 04:16 AM 0.000 0.000 0.000 0.000 0.000 Not Reported Not Reported
04/18/2019 02:05 AM 41.90 40.10 37.76 65.66 28.40 84.0 Not Reported 2.68 NE 2.46 NE 3.13 NE No 0.000 No Precipitation 04/16/2019 04:11 AM 04/16/2019 04:16 AM 0.000 0.000 0.000 0.000 0.000 Not Reported Not Reported
04/18/2019 02:10 AM 41.90 39.92 37.58 65.66 28.40 84.0 Not Reported 2.46 NE 2.24 N 3.13 NE No 0.000 No Precipitation 04/16/2019 04:11 AM 04/16/2019 04:16 AM 0.000 0.000 0.000 0.000 0.000 Not Reported Not Reported
04/18/2019 02:15 AM 42.62 40.46 37.94 65.66 28.40 83.0 Not Reported 2.46 N 2.68 N 3.13 NE No 0.000 No Precipitation 04/16/2019 04:11 AM 04/16/2019 04:16 AM 0.000 0.000 0.000 0.000 0.000 Not Reported Not Reported
04/18/2019 02:20 AM 42.80 40.46 37.94 65.66 28.40 82.0 Not Reported 3.36 N 3.58 N 3.58 N No 0.000 No Precipitation 04/16/2019 04:11 AM 04/16/2019 04:16 AM 0.000 0.000 0.000 0.000 0.000 Not Reported Not Reported
04/18/2019 02:25 AM 44.42 41.54 38.30 65.66 28.40 78.0 Not Reported 3.80 N 3.36 N 3.58 N No 0.000 No Precipitation 04/16/2019 04:11 AM 04/16/2019 04:16 AM 0.000 0.000 0.000 0.000 0.000 Not Reported Not Reported
04/18/2019 02:30 AM 42.26 39.92 37.04 65.66 28.40 81.0 Not Reported 3.13 NE 2.91 NE 4.03 N No 0.000 No Precipitation 04/16/2019 04:11 AM 04/16/2019 04:16 AM 0.000 0.000 0.000 0.000 0.000 Not Reported Not Reported
04/18/2019 02:35 AM 40.64 38.66 36.32 65.66 28.40 84.0 Not Reported 1.79 NE 2.01 NE 4.03 N No 0.000 No Precipitation 04/16/2019 04:11 AM 04/16/2019 04:16 AM 0.000 0.000 0.000 0.000 0.000 Not Reported Not Reported
04/18/2019 02:40 AM 41.00 39.20 36.68 65.66 28.40 84.0 Not Reported 2.91 NE 2.91 NE 3.13 NE No 0.000 No Precipitation 04/16/2019 04:11 AM 04/16/2019 04:16 AM 0.000 0.000 0.000 0.000 0.000 Not Reported Not Reported
04/18/2019 02:45 AM 41.72 40.10 38.12 65.66 28.40 86.0 Not Reported 2.68 N 2.46 NE 3.13 NE No 0.000 No Precipitation 04/16/2019 04:11 AM 04/16/2019 04:16 AM 0.000 0.000 0.000 0.000 0.000 Not Reported Not Reported
04/18/2019 02:50 AM 41.72 39.74 37.40 65.66 28.40 84.0 Not Reported 2.24 NE 2.24 NE 3.13 N No 0.000 No Precipitation 04/16/2019 04:11 AM 04/16/2019 04:16 AM 0.000 0.000 0.000 0.000 0.000 Not Reported Not Reported
04/18/2019 02:55 AM 41.72 39.56 37.04 65.66 28.40 82.0 Not Reported 1.57 NE 2.24 NE 3.13 N No 0.000 No Precipitation 04/16/2019 04:11 AM 04/16/2019 04:16 AM 0.000 0.000 0.000 0.000 0.000 Not Reported Not Reported
04/18/2019 03:00 AM 40.82 39.02 37.04 65.66 28.40 86.0 Not Reported 2.01 NE 1.79 NE 2.68 NE No 0.000 No Precipitation 04/16/2019 04:11 AM 04/16/2019 04:16 AM 0.000 0.000 0.000 0.000 0.000 Not Reported Not Reported
04/18/2019 03:05 AM 41.00 39.20 37.22 65.66 28.40 86.0 Not Reported 2.91 NE 3.36 NE 2.68 NE No 0.000 No Precipitation 04/16/2019 04:11 AM 04/16/2019 04:16 AM 0.000 0.000 0.000 0.000 0.000 Not Reported Not Reported
04/18/2019 03:10 AM 40.10 38.48 36.86 65.66 28.40 88.0 Not Reported 3.13 NE 3.13 NE 3.58 N No 0.000 No Precipitation 04/16/2019 04:11 AM 04/16/2019 04:16 AM 0.000 0.000 0.000 0.000 0.000 Not Reported Not Reported
04/18/2019 03:15 AM 42.08 40.28 38.12 65.66 28.40 85.0 Not Reported 2.68 NE 2.24 NE 3.58 N No 0.000 No Precipitation 04/16/2019 04:11 AM 04/16/2019 04:16 AM 0.000 0.000 0.000 0.000 0.000 Not Reported Not Reported
04/18/2019 03:20 AM 40.64 38.84 36.68 65.66 28.40 85.0 Not Reported 2.46 NE 3.80 NE 3.80 NE No 0.000 No Precipitation 04/16/2019 04:11 AM 04/16/2019 04:16 AM 0.000 0.000 0.000 0.000 0.000 Not Reported Not Reported
04/18/2019 03:25 AM 41.72 39.92 37.76 65.66 28.40 85.0 Not Reported 2.68 NE 1.57 NE 3.80 NE No 0.000 No Precipitation 04/16/2019 04:11 AM 04/16/2019 04:16 AM 0.000 0.000 0.000 0.000 0.000 Not Reported Not Reported
04/18/2019 03:30 AM 40.10 38.48 36.50 65.66 28.40 86.0 Not Reported 2.91 NE 2.91 NE 3.13 NE No 0.000 No Precipitation 04/16/2019 04:11 AM 04/16/2019 04:16 AM 0.000 0.000 0.000 0.000 0.000 Not Reported Not Reported
04/18/2019 03:35 AM 39.92 38.48 36.68 65.66 28.40 88.0 Not Reported 2.91 NE 2.68 NE 3.13 NE No 0.000 No Precipitation 04/16/2019 04:11 AM 04/16/2019 04:16 AM 0.000 0.000 0.000 0.000 0.000 Not Reported Not Reported
04/18/2019 03:40 AM 38.66 37.04 34.88 65.66 28.40 86.0 Not Reported 3.13 NE 3.13 NE 3.58 NE No 0.000 No Precipitation 04/16/2019 04:11 AM 04/16/2019 04:16 AM 0.000 0.000 0.000 0.000 0.000 Not Reported Not Reported
04/18/2019 03:45 AM 39.38 37.94 36.14 65.66 28.40 88.0 Not Reported 3.36 NE 2.91 NE 3.58 NE No 0.000 No Precipitation 04/16/2019 04:11 AM 04/16/2019 04:16 AM 0.000 0.000 0.000 0.000 0.000 Not Reported Not Reported
04/18/2019 03:50 AM 40.46 38.84 36.68 65.66 28.40 86.0 Not Reported 1.79 NE 2.01 NE 4.03 NE No 0.000 No Precipitation 04/16/2019 04:11 AM 04/16/2019 04:16 AM 0.000 0.000 0.000 0.000 0.000 Not Reported Not Reported
04/18/2019 03:55 AM 40.64 39.02 37.04 65.66 28.40 86.0 Not Reported 2.68 NE 1.57 E 4.03 NE No 0.000 No Precipitation 04/16/2019 04:11 AM 04/16/2019 04:16 AM 0.000 0.000 0.000 0.000 0.000 Not Reported Not Reported
04/18/2019 04:00 AM 41.54 39.92 38.12 65.66 28.40 86.0 Not Reported 2.24 NE 2.46 NE 3.13 NE No 0.000 No Precipitation 04/16/2019 04:11 AM 04/16/2019 04:16 AM 0.000 0.000 0.000 0.000 0.000 Not Reported Not Reported
04/18/2019 04:05 AM 41.00 39.20 36.86 65.66 28.40 85.0 Not Reported 1.79 E 2.68 NE 3.13 NE No 0.000 No Precipitation 04/16/2019 04:11 AM 04/16/2019 04:16 AM 0.000 0.000 0.000 0.000 0.000 Not Reported Not Reported
04/18/2019 04:10 AM 39.74 37.94 35.96 65.66 28.40 86.0 Not Reported 3.58 E 4.03 SE 4.03 SE No 0.000 No Precipitation 04/16/2019 04:11 AM 04/16/2019 04:16 AM 0.000 0.000 0.000 0.000 0.000 Not Reported Not Reported
04/18/2019 04:15 AM 39.02 37.58 35.96 65.66 28.40 88.0 Not Reported 4.25 SE 4.25 SE 4.03 SE No 0.000 No Precipitation 04/16/2019 04:11 AM 04/16/2019 04:16 AM 0.000 0.000 0.000 0.000 0.000 Not Reported Not Reported
04/18/2019 04:20 AM 39.20 38.12 36.50 65.66 28.40 90.0 Not Reported 3.80 SE 3.58 E 4.47 SE No 0.000 No Precipitation 04/16/2019 04:11 AM 04/16/2019 04:16 AM 0.000 0.000 0.000 0.000 0.000 Not Reported Not Reported
04/18/2019 04:25 AM 38.84 37.76 36.32 65.66 28.40 90.0 Not Reported 4.03 E 3.13 E 4.47 SE No 0.000 No Precipitation 04/16/2019 04:11 AM 04/16/2019 04:16 AM 0.000 0.000 0.000 0.000 0.000 Not Reported Not Reported
04/18/2019 04:30 AM 38.66 37.58 36.14 65.66 28.40 90.0 Not Reported 2.91 E 2.46 E 4.25 E No 0.000 No Precipitation 04/16/2019 04:11 AM 04/16/2019 04:16 AM 0.000 0.000 0.000 0.000 0.000 Not Reported Not Reported
04/18/2019 04:35 AM 39.74 38.66 37.40 65.66 28.40 91.0 Not Reported 2.91 E 2.68 E 4.25 E No 0.000 No Precipitation 04/16/2019 04:11 AM 04/16/2019 04:16 AM 0.000 0.000 0.000 0.000 0.000 Not Reported Not Reported
04/18/2019 04:40 AM 40.28 38.84 37.04 65.66 28.40 88.0 Not Reported 3.13 SE 3.13 SE 3.13 SE No 0.000 No Precipitation 04/16/2019 04:11 AM 04/16/2019 04:16 AM 0.000 0.000 0.000 0.000 0.000 Not Reported Not Reported
04/18/2019 04:45 AM 39.74 38.66 37.04 65.66 28.40 89.0 Not Reported 3.58 E 2.91 E 3.13 SE No 0.000 No Precipitation 04/16/2019 04:11 AM 04/16/2019 04:16 AM 0.000 0.000 0.000 0.000 0.000 Not Reported Not Reported
04/18/2019 04:50 AM 40.64 39.38 37.94 65.66 28.40 90.0 Not Reported 2.46 E 2.24 E 3.58 SE No 0.000 No Precipitation 04/16/2019 04:11 AM 04/16/2019 04:16 AM 0.000 0.000 0.000 0.000 0.000 Not Reported Not Reported
04/18/2019 04:55 AM 39.20 37.76 36.50 65.66 28.40 89.0 Not Reported 3.13 E 4.03 SE 3.58 SE No 0.000 No Precipitation 04/16/2019 04:11 AM 04/16/2019 04:16 AM 0.000 0.000 0.000 0.000 0.000 Not Reported Not Reported
04/18/2019 05:00 AM 39.02 38.12 36.68 65.66 28.40 91.0 Not Reported 4.47 SE 4.70 SE 4.70 SE No 0.000 No Precipitation 04/16/2019 04:11 AM 04/16/2019 04:16 AM 0.000 0.000 0.000 0.000 0.000 Not Reported Not Reported
04/18/2019 05:05 AM 39.38 38.12 36.86 65.66 28.40 90.0 Not Reported 3.80 SE 3.58 SE 4.70 SE No 0.000 No Precipitation 04/16/2019 04:11 AM 04/16/2019 04:16 AM 0.000 0.000 0.000 0.000 0.000 Not Reported Not Reported
04/18/2019 05:10 AM 38.84 37.58 36.14 65.66 28.40 90.0 Not Reported 4.70 SE 4.70 E 4.92 SE No 0.000 No Precipitation 04/16/2019 04:11 AM 04/16/2019 04:16 AM 0.000 0.000 0.000 0.000 0.000 Not Reported Not Reported
04/18/2019 05:15 AM 38.66 37.58 36.14 65.66 28.40 90.0 Not Reported 2.91 E 2.01 E 4.92 SE No 0.000 No Precipitation 04/16/2019 04:11 AM 04/16/2019 04:16 AM 0.000 0.000 0.000 0.000 0.000 Not Reported Not Reported
04/18/2019 05:20 AM 37.94 36.86 35.60 65.66 28.40 91.0 Not Reported 2.46 E 2.68 E 4.25 E No 0.000 No Precipitation 04/16/2019 04:11 AM 04/16/2019 04:16 AM 0.000 0.000 0.000 0.000 0.000 Not Reported Not Reported
04/18/2019 05:25 AM 38.48 37.58 36.50 65.66 28.40 92.0 Not Reported 2.01 E 1.57 E 4.25 E No 0.000 No Precipitation 04/16/2019 04:11 AM 04/16/2019 04:16 AM 0.000 0.000 0.000 0.000 0.000 Not Reported Not Reported
04/18/2019 05:30 AM 38.30 37.22 35.96 65.66 28.40 91.0 Not Reported 2.91 E 3.13 E 3.13 E No 0.000 No Precipitation 04/16/2019 04:11 AM 04/16/2019 04:16 AM 0.000 0.000 0.000 0.000 0.000 Not Reported Not Reported
04/18/2019 05:35 AM 38.66 37.76 36.68 65.66 28.40 92.0 Not Reported 2.01 E 2.68 E 3.13 E No 0.000 No Precipitation 04/16/2019 04:11 AM 04/16/2019 04:16 AM 0.000 0.000 0.000 0.000 0.000 Not Reported Not Reported
04/18/2019 05:40 AM 38.66 37.58 36.50 65.66 28.40 91.0 Not Reported 2.24 E 2.46 E 3.36 SE No 0.000 No Precipitation 04/16/2019 04:11 AM 04/16/2019 04:16 AM 0.000 0.000 0.000 0.000 0.000 Not Reported Not Reported
04/18/2019 05:45 AM 38.48 37.58 36.32 65.66 28.40 91.0 Not Reported 3.80 SE 4.25 SE 3.36 SE No 0.000 No Precipitation 04/16/2019 04:11 AM 04/16/2019 04:16 AM 0.000 0.000 0.000 0.000 0.000 Not Reported Not Reported
04/18/2019 05:50 AM 38.84 37.76 36.68 65.66 28.40 91.0 Not Reported 4.03 E 3.58 E 4.25 SE No 0.000 No Precipitation 04/16/2019 04:11 AM 04/16/2019 04:16 AM 0.000 0.000 0.000 0.000 0.000 Not Reported Not Reported
04/18/2019 05:55 AM 39.02 37.94 36.68 65.66 28.40 91.0 Not Reported 2.46 E 1.34 E 4.25 SE No 0.000 No Precipitation 04/16/2019 04:11 AM 04/16/2019 04:16 AM 0.000 0.000 0.000 0.000 0.000 Not Reported Not Reported
04/18/2019 06:00 AM 38.48 37.40 36.14 65.66 28.58 90.0 Not Reported 1.57 E 1.57 E 3.80 E No 0.000 No Precipitation 04/16/2019 04:11 AM 04/16/2019 04:16 AM 0.000 0.000 0.000 0.000 0.000 Not Reported Not Reported
04/18/2019 06:05 AM 37.94 36.86 35.60 65.66 28.58 91.0 Not Reported 1.79 E 1.34 E 3.80 E No 0.000 No Precipitation 04/16/2019 04:11 AM 04/16/2019 04:16 AM 0.000 0.000 0.000 0.000 0.000 Not Reported Not Reported
04/18/2019 06:10 AM 36.32 35.42 34.16 65.66 28.58 91.0 Not Reported 1.79 E 1.79 E 2.24 E No 0.000 No Precipitation 04/16/2019 04:11 AM 04/16/2019 04:16 AM 0.000 0.000 0.000 0.000 0.000 Not Reported Not Reported
04/18/2019 06:15 AM 36.32 35.60 34.52 65.66 28.58 92.0 Not Reported 2.68 SE 2.68 SE 2.24 E No 0.000 No Precipitation 04/16/2019 04:11 AM 04/16/2019 04:16 AM 0.000 0.000 0.000 0.000 0.000 Not Reported Not Reported
04/18/2019 06:20 AM 35.42 34.70 33.62 65.66 28.58 92.0 Not Reported 2.24 E 2.24 E 2.91 SE No 0.000 No Precipitation 04/16/2019 04:11 AM 04/16/2019 04:16 AM 0.000 0.000 0.000 0.000 0.000 Not Reported Not Reported
04/18/2019 06:25 AM 37.58 36.86 36.14 65.66 28.58 94.0 Not Reported 2.46 E 3.36 SE 2.91 SE No 0.000 No Precipitation 04/16/2019 04:11 AM 04/16/2019 04:16 AM 0.000 0.000 0.000 0.000 0.000 Not Reported Not Reported
04/18/2019 06:30 AM 37.58 36.86 35.96 65.66 28.58 93.0 Not Reported 2.24 E 1.79 E 3.58 E No 0.000 No Precipitation 04/16/2019 04:11 AM 04/16/2019 04:16 AM 0.000 0.000 0.000 0.000 0.000 Not Reported Not Reported
04/18/2019 06:35 AM 35.78 34.88 33.80 65.66 28.58 92.0 Not Reported 1.12 E 0.89 E 3.58 E No 0.000 No Precipitation 04/16/2019 04:11 AM 04/16/2019 04:16 AM 0.000 0.000 0.000 0.000 0.000 Not Reported Not Reported
04/18/2019 06:40 AM 36.86 36.14 35.24 65.66 28.58 93.0 Not Reported 0.00 NW 0.22 NW 1.79 E No 0.000 No Precipitation 04/16/2019 04:11 AM 04/16/2019 04:16 AM 0.000 0.000 0.000 0.000 0.000 Not Reported Not Reported
04/18/2019 06:45 AM 39.02 38.30 37.58 65.66 28.58 94.0 Not Reported 0.45 NW 0.00 NW 1.79 E No 0.000 No Precipitation 04/16/2019 04:11 AM 04/16/2019 04:16 AM 0.000 0.000 0.000 0.000 0.000 Not Reported Not Reported
04/18/2019 06:50 AM 37.58 36.32 34.88 65.66 28.58 90.0 Not Reported 0.22 E 0.67 E 1.12 NW No 0.000 No Precipitation 04/16/2019 04:11 AM 04/16/2019 04:16 AM 0.000 0.000 0.000 0.000 0.000 Not Reported Not Reported
04/18/2019 06:55 AM 36.32 35.42 34.34 65.66 28.58 92.0 Not Reported 1.79 E 1.34 E 1.12 NW No 0.000 No Precipitation 04/16/2019 04:11 AM 04/16/2019 04:16 AM 0.000 0.000 0.000 0.000 0.000 Not Reported Not Reported
04/18/2019 07:00 AM 36.86 36.14 35.24 65.66 28.58 93.0 Not Reported 1.57 NE 0.89 NE 2.01 NE No 0.000 No Precipitation 04/16/2019 04:11 AM 04/16/2019 04:16 AM 0.000 0.000 0.000 0.000 0.000 Not Reported Not Reported
04/18/2019 07:05 AM 35.96 35.24 34.34 65.66 28.58 93.0 Not Reported 2.01 NE 2.24 NE 2.01 NE No 0.000 No Precipitation 04/16/2019 04:11 AM 04/16/2019 04:16 AM 0.000 0.000 0.000 0.000 0.000 Not Reported Not Reported
04/18/2019 07:10 AM 34.70 34.16 33.26 65.66 28.58 93.0 Not Reported 1.34 E 1.34 E 2.68 N No 0.000 No Precipitation 04/16/2019 04:11 AM 04/16/2019 04:16 AM 0.000 0.000 0.000 0.000 0.000 Not Reported Not Reported
04/18/2019 07:15 AM 36.32 35.78 35.06 65.66 28.58 95.0 Not Reported 2.91 E 1.57 E 2.68 N No 0.000 No Precipitation 04/16/2019 04:11 AM 04/16/2019 04:16 AM 0.000 0.000 0.000 0.000 0.000 Not Reported Not Reported
04/18/2019 07:20 AM 38.12 37.58 36.86 65.66 28.58 95.0 Not Reported 3.36 SE 3.36 SE 3.58 SE No 0.000 No Precipitation 04/16/2019 04:11 AM 04/16/2019 04:16 AM 0.000 0.000 0.000 0.000 0.000 Not Reported Not Reported
04/18/2019 07:25 AM 37.76 37.04 36.14 65.66 29.12 93.0 Not Reported 3.36 SE 3.36 E 3.58 SE No 0.000 No Precipitation 04/16/2019 04:11 AM 04/16/2019 04:16 AM 0.000 0.000 0.000 0.000 0.000 Not Reported Not Reported
04/18/2019 07:30 AM 36.86 35.96 34.52 65.66 29.12 90.0 Not Reported 4.03 E 4.03 E 4.47 SE No 0.000 No Precipitation 04/16/2019 04:11 AM 04/16/2019 04:16 AM 0.000 0.000 0.000 0.000 0.000 Not Reported Not Reported
04/18/2019 07:35 AM 37.04 36.14 34.70 65.66 29.30 91.0 Not Reported 4.03 E 4.25 E 4.47 SE No 0.000 No Precipitation 04/16/2019 04:11 AM 04/16/2019 04:16 AM 0.000 0.000 0.000 0.000 0.000 Not Reported Not Reported
04/18/2019 07:40 AM 38.48 37.40 36.14 65.66 29.48 90.0 Not Reported 4.03 E 4.47 E 4.47 E No 0.000 No Precipitation 04/16/2019 04:11 AM 04/16/2019 04:16 AM 0.000 0.000 0.000 0.000 0.000 Not Reported Not Reported
04/18/2019 07:45 AM 38.84 37.40 35.78 65.66 29.66 88.0 Not Reported 3.36 SE 3.80 SE 4.47 E No 0.000 No Precipitation 04/16/2019 04:11 AM 04/16/2019 04:16 AM 0.000 0.000 0.000 0.000 0.000 Not Reported Not Reported
04/18/2019 07:50 AM 37.04 35.78 34.34 65.66 30.38 89.0 Not Reported 4.03 SE 4.25 SE 4.70 SE No 0.000 No Precipitation 04/16/2019 04:11 AM 04/16/2019 04:16 AM 0.000 0.000 0.000 0.000 0.000 Not Reported Not Reported
04/18/2019 07:55 AM 38.66 37.58 36.32 65.66 30.38 90.0 Not Reported 3.36 SE 3.13 SE 4.70 SE No 0.000 No Precipitation 04/16/2019 04:11 AM 04/16/2019 04:16 AM 0.000 0.000 0.000 0.000 0.000 Not Reported Not Reported
04/18/2019 08:00 AM 38.12 36.86 35.24 65.66 30.56 89.0 Not Reported 1.57 SE 1.57 SE 4.03 SE No 0.000 No Precipitation 04/16/2019 04:11 AM 04/16/2019 04:16 AM 0.000 0.000 0.000 0.000 0.000 Not Reported Not Reported
04/18/2019 08:05 AM 39.38 37.94 36.50 65.66 31.10 88.0 Not Reported 0.45 SE 0.00 SE 4.03 SE No 0.000 No Precipitation 04/16/2019 04:11 AM 04/16/2019 04:16 AM 0.000 0.000 0.000 0.000 0.000 Not Reported Not Reported
04/18/2019 08:10 AM 39.02 37.40 35.24 65.66 32.00 86.0 Not Reported 2.91 SE 2.91 SE 3.13 SE No 0.000 No Precipitation 04/16/2019 04:11 AM 04/16/2019 04:16 AM 0.000 0.000 0.000 0.000 0.000 Not Reported Not Reported
04/18/2019 08:15 AM 40.28 38.48 36.14 65.66 33.62 84.0 Not Reported 2.01 SE 1.57 SE 3.13 SE No 0.000 No Precipitation 04/16/2019 04:11 AM 04/16/2019 04:16 AM 0.000 0.000 0.000 0.000 0.000 Not Reported Not Reported
04/18/2019 08:20 AM 42.08 39.74 37.22 65.66 33.80 82.0 Not Reported 2.91 SE 3.58 SE 3.58 SE No 0.000 No Precipitation 04/16/2019 04:11 AM 04/16/2019 04:16 AM 0.000 0.000 0.000 0.000 0.000 Not Reported Not Reported
04/18/2019 08:25 AM 42.98 40.46 37.40 65.66 34.52 80.0 Not Reported 4.47 SE 2.91 E 3.58 SE No 0.000 No Precipitation 04/16/2019 04:11 AM 04/16/2019 04:16 AM 0.000 0.000 0.000 0.000 0.000 Not Reported Not Reported
04/18/2019 08:30 AM 45.50 42.62 39.20 65.66 34.52 78.0 Not Reported 4.25 E 3.80 E 4.70 E No 0.000 No Precipitation 04/16/2019 04:11 AM 04/16/2019 04:16 AM 0.000 0.000 0.000 0.000 0.000 Not Reported Not Reported
04/18/2019 08:35 AM 47.66 43.70 39.56 65.66 34.52 73.0 Not Reported 2.24 E 2.24 E 4.70 E No 0.000 No Precipitation 04/16/2019 04:11 AM 04/16/2019 04:16 AM 0.000 0.000 0.000 0.000 0.000 Not Reported Not Reported
04/18/2019 08:40 AM 48.92 44.42 39.74 65.66 34.52 70.0 Not Reported 1.34 E 1.12 SE 3.36 E No 0.000 No Precipitation 04/16/2019 04:11 AM 04/16/2019 04:16 AM 0.000 0.000 0.000 0.000 0.000 Not Reported Not Reported
04/18/2019 08:45 AM 49.28 44.42 39.02 65.66 34.52 67.0 Not Reported 1.57 SE 1.57 E 3.36 E No 0.000 No Precipitation 04/16/2019 04:11 AM 04/16/2019 04:16 AM 0.000 0.000 0.000 0.000 0.000 Not Reported Not Reported
04/18/2019 08:50 AM 50.72 45.14 39.38 65.66 34.52 64.0 Not Reported 0.22 NE 0.00 E 2.01 SE No 0.000 No Precipitation 04/16/2019 04:11 AM 04/16/2019 04:16 AM 0.000 0.000 0.000 0.000 0.000 Not Reported Not Reported
04/18/2019 08:55 AM 51.80 46.04 39.92 65.66 34.52 63.0 Not Reported 0.00 N 0.00 W 2.01 SE No 0.000 No Precipitation 04/16/2019 04:11 AM 04/16/2019 04:16 AM 0.000 0.000 0.000 0.000 0.000 Not Reported Not Reported
04/18/2019 09:00 AM 51.80 46.04 40.28 65.66 34.52 64.0 Not Reported 0.22 W 0.45 W 1.12 NW No 0.000 No Precipitation 04/16/2019 04:11 AM 04/16/2019 04:16 AM 0.000 0.000 0.000 0.000 0.000 Not Reported Not Reported
04/18/2019 09:05 AM 50.00 45.32 40.64 65.66 34.52 69.0 Not Reported 2.68 W 2.24 W 1.12 NW No 0.000 No Precipitation 04/16/2019 04:11 AM 04/16/2019 04:16 AM 0.000 0.000 0.000 0.000 0.000 Not Reported Not Reported
04/18/2019 09:10 AM 50.72 45.68 40.46 65.66 34.52 67.0 Not Reported 1.57 W 0.89 W 3.13 W No 0.000 No Precipitation 04/16/2019 04:11 AM 04/16/2019 04:16 AM 0.000 0.000 0.000 0.000 0.000 Not Reported Not Reported
04/18/2019 09:15 AM 51.98 46.40 40.46 65.66 34.52 64.0 Not Reported 0.67 W 0.22 W 3.13 W No 0.000 No Precipitation 04/16/2019 04:11 AM 04/16/2019 04:16 AM 0.000 0.000 0.000 0.000 0.000 Not Reported Not Reported
04/18/2019 09:20 AM 52.88 46.76 40.46 65.66 34.52 62.0 Not Reported 0.45 SW 0.45 SW 1.34 W No 0.000 No Precipitation 04/16/2019 04:11 AM 04/16/2019 04:16 AM 0.000 0.000 0.000 0.000 0.000 Not Reported Not Reported
04/18/2019 09:25 AM 53.60 47.12 40.64 65.66 34.52 61.0 Not Reported 1.57 SW 0.67 SW 1.34 W No 0.000 No Precipitation 04/16/2019 04:11 AM 04/16/2019 04:16 AM 0.000 0.000 0.000 0.000 0.000 Not Reported Not Reported
04/18/2019 09:30 AM 55.04 48.38 42.26 65.66 34.52 61.0 Not Reported 0.89 SW 0.89 SW 2.01 SW No 0.000 No Precipitation 04/16/2019 04:11 AM 04/16/2019 04:16 AM 0.000 0.000 0.000 0.000 0.000 Not Reported Not Reported
04/18/2019 09:35 AM 54.86 48.02 41.54 65.66 34.52 60.0 Not Reported 0.89 W 1.34 W 2.01 SW No 0.000 No Precipitation 04/16/2019 04:11 AM 04/16/2019 04:16 AM 0.000 0.000 0.000 0.000 0.000 Not Reported Not Reported
04/18/2019 09:40 AM 55.76 48.38 41.18 65.66 34.52 58.0 Not Reported 0.67 SW 0.45 SE 2.24 SW No 0.000 No Precipitation 04/16/2019 04:11 AM 04/16/2019 04:16 AM 0.000 0.000 0.000 0.000 0.000 Not Reported Not Reported
04/18/2019 09:45 AM 56.30 48.56 40.82 65.66 34.52 56.0 Not Reported 0.00 SW 0.89 W 2.24 SW No 0.000 No Precipitation 04/16/2019 04:11 AM 04/16/2019 04:16 AM 0.000 0.000 0.000 0.000 0.000 Not Reported Not Reported
04/18/2019 09:50 AM 56.48 48.74 41.00 65.66 34.52 56.0 Not Reported 0.22 W 0.00 NE 1.34 W No 0.000 No Precipitation 04/16/2019 04:11 AM 04/16/2019 04:16 AM 0.000 0.000 0.000 0.000 0.000 Not Reported Not Reported
04/18/2019 09:55 AM 56.66 48.74 41.00 65.66 34.52 55.0 Not Reported 1.79 W 2.24 W 1.34 W No 0.000 No Precipitation 04/16/2019 04:11 AM 04/16/2019 04:16 AM 0.000 0.000 0.000 0.000 0.000 Not Reported Not Reported
04/18/2019 10:00 AM 57.02 49.10 41.54 65.66 34.52 56.0 Not Reported 0.67 NW 0.67 NW 3.13 W No 0.000 No Precipitation 04/16/2019 04:11 AM 04/16/2019 04:16 AM 0.000 0.000 0.000 0.000 0.000 Not Reported Not Reported
04/18/2019 10:05 AM 57.38 49.28 41.54 65.66 34.52 55.0 Not Reported 1.12 W 0.89 NW 3.13 W No 0.000 No Precipitation 04/16/2019 04:11 AM 04/16/2019 04:16 AM 0.000 0.000 0.000 0.000 0.000 Not Reported Not Reported
04/18/2019 10:10 AM 58.10 49.10 40.64 65.66 34.52 52.0 Not Reported 1.34 N 0.89 N 2.01 SW No 0.000 No Precipitation 04/16/2019 04:11 AM 04/16/2019 04:16 AM 0.000 0.000 0.000 0.000 0.000 Not Reported Not Reported
04/18/2019 10:15 AM 58.46 50.00 42.08 65.66 34.52 54.0 Not Reported 0.89 N 1.12 SW 2.01 SW No 0.000 No Precipitation 04/16/2019 04:11 AM 04/16/2019 04:16 AM 0.000 0.000 0.000 0.000 0.000 Not Reported Not Reported
04/18/2019 10:20 AM 59.72 49.46 39.56 65.66 34.52 47.0 Not Reported 2.01 SE 3.13 S 3.13 S No 0.000 No Precipitation 04/16/2019 04:11 AM 04/16/2019 04:16 AM 0.000 0.000 0.000 0.000 0.000 Not Reported Not Reported
04/18/2019 10:25 AM 59.90 50.18 40.82 65.66 34.52 48.0 Not Reported 2.24 SE 1.12 SE 3.13 S No 0.000 No Precipitation 04/16/2019 04:11 AM 04/16/2019 04:16 AM 0.000 0.000 0.000 0.000 0.000 Not Reported Not Reported
04/18/2019 10:30 AM 59.90 49.82 40.28 65.66 34.52 48.0 Not Reported 3.13 SE 2.68 SE 4.92 SE No 0.000 No Precipitation 04/16/2019 04:11 AM 04/16/2019 04:16 AM 0.000 0.000 0.000 0.000 0.000 Not Reported Not Reported
04/18/2019 10:35 AM 61.52 50.72 40.64 65.66 34.52 46.0 Not Reported 2.01 S 2.91 E 4.92 SE No 0.000 No Precipitation 04/16/2019 04:11 AM 04/16/2019 04:16 AM 0.000 0.000 0.000 0.000 0.000 Not Reported Not Reported
04/18/2019 10:40 AM 60.80 50.00 39.38 65.66 34.52 45.0 Not Reported 3.13 SE 2.91 SE 4.47 S No 0.000 No Precipitation 04/16/2019 04:11 AM 04/16/2019 04:16 AM 0.000 0.000 0.000 0.000 0.000 Not Reported Not Reported
04/18/2019 10:45 AM 60.80 50.18 39.92 65.66 34.52 45.0 Not Reported 3.36 SE 3.13 SW 4.47 S No 0.000 No Precipitation 04/16/2019 04:11 AM 04/16/2019 04:16 AM 0.000 0.000 0.000 0.000 0.000 Not Reported Not Reported
04/18/2019 10:50 AM 62.06 50.90 40.46 65.66 34.52 44.0 Not Reported 2.91 S 3.36 S 5.59 SE No 0.000 No Precipitation 04/16/2019 04:11 AM 04/16/2019 04:16 AM 0.000 0.000 0.000 0.000 0.000 Not Reported Not Reported
04/18/2019 10:55 AM 62.42 50.72 39.20 65.66 34.52 42.0 Not Reported 2.24 E 3.80 E 5.59 SE No 0.000 No Precipitation 04/16/2019 04:11 AM 04/16/2019 04:16 AM 0.000 0.000 0.000 0.000 0.000 Not Reported Not Reported
04/18/2019 11:00 AM 62.60 50.54 39.02 65.66 34.52 41.0 Not Reported 2.68 SE 2.46 S 4.47 E No 0.000 No Precipitation 04/16/2019 04:11 AM 04/16/2019 04:16 AM 0.000 0.000 0.000 0.000 0.000 Not Reported Not Reported
04/18/2019 11:05 AM 63.14 51.08 39.74 65.66 34.52 42.0 Not Reported 2.68 SE 1.12 S 4.47 E No 0.000 No Precipitation 04/16/2019 04:11 AM 04/16/2019 04:16 AM 0.000 0.000 0.000 0.000 0.000 Not Reported Not Reported
04/18/2019 11:10 AM 64.04 51.08 38.48 65.66 34.52 38.0 Not Reported 1.79 SE 2.01 E 4.92 SE No 0.000 No Precipitation 04/16/2019 04:11 AM 04/16/2019 04:16 AM 0.000 0.000 0.000 0.000 0.000 Not Reported Not Reported
04/18/2019 11:15 AM 65.30 52.34 40.46 65.66 34.52 40.0 Not Reported 2.01 E 2.68 SE 4.92 SE No 0.000 No Precipitation 04/16/2019 04:11 AM 04/16/2019 04:16 AM 0.000 0.000 0.000 0.000 0.000 Not Reported Not Reported
04/18/2019 11:20 AM 65.66 52.52 40.64 65.66 34.52 40.0 Not Reported 1.79 SW 2.91 SW 2.91 SW No 0.000 No Precipitation 04/16/2019 04:11 AM 04/16/2019 04:16 AM 0.000 0.000 0.000 0.000 0.000 Not Reported Not Reported
04/18/2019 11:25 AM 65.12 51.62 38.48 66.02 34.52 37.0 Not Reported 4.92 SW 3.13 S 2.91 SW No 0.000 No Precipitation 04/16/2019 04:11 AM 04/16/2019 04:16 AM 0.000 0.000 0.000 0.000 0.000 Not Reported Not Reported
04/18/2019 11:30 AM 64.76 51.26 38.48 66.02 34.52 37.0 Not Reported 1.12 SW 0.89 E 6.71 SW No 0.000 No Precipitation 04/16/2019 04:11 AM 04/16/2019 04:16 AM 0.000 0.000 0.000 0.000 0.000 Not Reported Not Reported
04/18/2019 11:35 AM 66.20 52.16 39.02 66.38 34.52 36.0 Not Reported 3.36 S 2.01 S 6.71 SW No 0.000 No Precipitation 04/16/2019 04:11 AM 04/16/2019 04:16 AM 0.000 0.000 0.000 0.000 0.000 Not Reported Not Reported
04/18/2019 11:40 AM 66.20 51.62 37.58 66.38 34.52 34.0 Not Reported 5.59 S 4.70 SW 6.71 S No 0.000 No Precipitation 04/16/2019 04:11 AM 04/16/2019 04:16 AM 0.000 0.000 0.000 0.000 0.000 Not Reported Not Reported
04/18/2019 11:45 AM 66.38 51.62 37.40 66.38 34.52 34.0 Not Reported 3.36 S 2.01 SE 6.71 S No 0.000 No Precipitation 04/16/2019 04:11 AM 04/16/2019 04:16 AM 0.000 0.000 0.000 0.000 0.000 Not Reported Not Reported
04/18/2019 11:50 AM 66.74 52.16 38.12 66.92 34.52 34.0 Not Reported 2.68 SW 3.58 S 7.38 SW No 0.000 No Precipitation 04/16/2019 04:11 AM 04/16/2019 04:16 AM 0.000 0.000 0.000 0.000 0.000 Not Reported Not Reported
04/18/2019 11:55 AM 66.38 51.80 37.40 66.92 34.52 34.0 Not Reported 3.58 SE 0.89 S 7.38 SW No 0.000 No Precipitation 04/16/2019 04:11 AM 04/16/2019 04:16 AM 0.000 0.000 0.000 0.000 0.000 Not Reported Not Reported
04/18/2019 12:00 PM 66.92 52.52 39.20 66.92 34.52 36.0 Not Reported 3.13 S 1.57 E 5.59 S No 0.000 No Precipitation 04/16/2019 04:11 AM 04/16/2019 04:16 AM 0.000 0.000 0.000 0.000 0.000 Not Reported Not Reported
04/18/2019 12:05 PM 66.38 51.80 37.76 67.64 34.52 34.0 Not Reported 4.47 E 3.13 SE 5.59 S No 0.000 No Precipitation 04/16/2019 04:11 AM 04/16/2019 04:16 AM 0.000 0.000 0.000 0.000 0.000 Not Reported Not Reported
04/18/2019 12:10 PM 65.84 51.08 36.14 67.64 34.52 33.0 Not Reported 5.82 E 7.38 SE 7.38 SE No 0.000 No Precipitation 04/16/2019 04:11 AM 04/16/2019 04:16 AM 0.000 0.000 0.000 0.000 0.000 Not Reported Not Reported
04/18/2019 12:15 PM 66.92 51.62 36.50 67.64 34.52 32.0 Not Reported 3.36 SE 2.46 NE 7.38 SE No 0.000 No Precipitation 04/16/2019 04:11 AM 04/16/2019 04:16 AM 0.000 0.000 0.000 0.000 0.000 Not Reported Not Reported
04/18/2019 12:20 PM 68.36 52.70 37.76 68.36 34.52 32.0 Not Reported 1.34 SW 0.22 S 6.49 E No 0.000 No Precipitation 04/16/2019 04:11 AM 04/16/2019 04:16 AM 0.000 0.000 0.000 0.000 0.000 Not Reported Not Reported
04/18/2019 12:25 PM 68.18 52.88 38.66 68.36 34.52 34.0 Not Reported 2.24 SE 4.70 SE 6.49 E No 0.000 No Precipitation 04/16/2019 04:11 AM 04/16/2019 04:16 AM 0.000 0.000 0.000 0.000 0.000 Not Reported Not Reported
04/18/2019 12:30 PM 67.82 51.98 36.14 68.36 34.52 31.0 Not Reported 2.46 NE 4.25 NE 5.14 SE No 0.000 No Precipitation 04/16/2019 04:11 AM 04/16/2019 04:16 AM 0.000 0.000 0.000 0.000 0.000 Not Reported Not Reported
04/18/2019 12:35 PM 68.18 52.34 36.86 69.26 34.52 31.0 Not Reported 5.37 SE 4.92 SE 5.14 SE No 0.000 No Precipitation 04/16/2019 04:11 AM 04/16/2019 04:16 AM 0.000 0.000 0.000 0.000 0.000 Not Reported Not Reported
04/18/2019 12:40 PM 68.36 52.34 36.50 69.26 34.52 30.0 Not Reported 1.34 S 2.91 E 7.16 SW No 0.000 No Precipitation 04/16/2019 04:11 AM 04/16/2019 04:16 AM 0.000 0.000 0.000 0.000 0.000 Not Reported Not Reported
04/18/2019 12:45 PM 68.18 51.62 34.70 69.26 34.52 29.0 Not Reported 6.04 E 10.07 SE 7.16 SW No 0.000 No Precipitation 04/16/2019 04:11 AM 04/16/2019 04:16 AM 0.000 0.000 0.000 0.000 0.000 Not Reported Not Reported
04/18/2019 12:50 PM 69.44 52.16 35.06 69.44 34.52 28.0 Not Reported 4.70 SE 4.70 SE 10.07 SE No 0.000 No Precipitation 04/16/2019 04:11 AM 04/16/2019 04:16 AM 0.000 0.000 0.000 0.000 0.000 Not Reported Not Reported
04/18/2019 12:55 PM 68.36 51.62 34.52 69.44 34.52 28.0 Not Reported 5.14 E 7.61 SE 10.07 SE No 0.000 No Precipitation 04/16/2019 04:11 AM 04/16/2019 04:16 AM 0.000 0.000 0.000 0.000 0.000 Not Reported Not Reported
04/18/2019 01:00 PM 68.36 50.54 31.28 69.44 34.52 24.0 Not Reported 4.92 E 3.80 E 9.17 SE No 0.000 No Precipitation 04/16/2019 04:11 AM 04/16/2019 04:16 AM 0.000 0.000 0.000 0.000 0.000 Not Reported Not Reported
04/18/2019 01:05 PM 69.08 52.52 36.32 69.44 34.52 29.0 Not Reported 3.36 E 5.59 S 9.17 SE No 0.000 No Precipitation 04/16/2019 04:11 AM 04/16/2019 04:16 AM 0.000 0.000 0.000 0.000 0.000 Not Reported Not Reported
04/18/2019 01:10 PM 68.54 50.72 31.28 69.98 34.52 24.0 Not Reported 6.49 SE 6.93 E 8.50 SE No 0.000 No Precipitation 04/16/2019 04:11 AM 04/16/2019 04:16 AM 0.000 0.000 0.000 0.000 0.000 Not Reported Not Reported
04/18/2019 01:15 PM 69.44 52.16 34.52 70.34 34.52 27.0 Not Reported 6.71 E 4.92 S 8.50 SE No 0.000 No Precipitation 04/16/2019 04:11 AM 04/16/2019 04:16 AM 0.000 0.000 0.000 0.000 0.000 Not Reported Not Reported
04/18/2019 01:20 PM 68.36 51.26 33.44 70.34 34.52 27.0 Not Reported 8.50 E 7.16 E 10.96 E No 0.000 No Precipitation 04/16/2019 04:11 AM 04/16/2019 04:16 AM 0.000 0.000 0.000 0.000 0.000 Not Reported Not Reported
04/18/2019 01:25 PM 69.44 51.62 32.72 70.34 34.52 25.0 Not Reported 6.49 E 4.25 SE 10.96 E No 0.000 No Precipitation 04/16/2019 04:11 AM 04/16/2019 04:16 AM 0.000 0.000 0.000 0.000 0.000 Not Reported Not Reported
04/18/2019 01:30 PM 69.26 51.62 33.44 70.52 34.52 26.0 Not Reported 5.59 SE 6.93 SE 8.72 E No 0.000 No Precipitation 04/16/2019 04:11 AM 04/16/2019 04:16 AM 0.000 0.000 0.000 0.000 0.000 Not Reported Not Reported
04/18/2019 01:35 PM 69.08 51.80 34.34 70.52 34.52 27.0 Not Reported 5.59 SE 4.47 SW 8.72 E No 0.000 No Precipitation 04/16/2019 04:11 AM 04/16/2019 04:16 AM 0.000 0.000 0.000 0.000 0.000 Not Reported Not Reported
04/18/2019 01:40 PM 70.88 52.88 34.88 70.88 34.52 26.0 Not Reported 2.01 SE 0.67 SE 6.93 SE No 0.000 No Precipitation 04/16/2019 04:11 AM 04/16/2019 04:16 AM 0.000 0.000 0.000 0.000 0.000 Not Reported Not Reported
04/18/2019 01:45 PM 69.62 51.80 33.44 71.24 34.52 26.0 Not Reported 4.92 SE 2.91 SE 6.93 SE No 0.000 No Precipitation 04/16/2019 04:11 AM 04/16/2019 04:16 AM 0.000 0.000 0.000 0.000 0.000 Not Reported Not Reported
04/18/2019 01:50 PM 71.24 53.24 35.78 71.24 34.52 27.0 Not Reported 3.58 S 5.14 S 10.29 SE No 0.000 No Precipitation 04/16/2019 04:11 AM 04/16/2019 04:16 AM 0.000 0.000 0.000 0.000 0.000 Not Reported Not Reported
04/18/2019 01:55 PM 69.62 51.98 33.62 72.32 34.52 26.0 Not Reported 5.37 SE 2.91 E 10.29 SE No 0.000 No Precipitation 04/16/2019 04:11 AM 04/16/2019 04:16 AM 0.000 0.000 0.000 0.000 0.000 Not Reported Not Reported
04/18/2019 02:00 PM 71.78 53.60 36.32 72.32 34.52 27.0 Not Reported 4.03 NE 9.84 S 9.84 S No 0.000 No Precipitation 04/16/2019 04:11 AM 04/16/2019 04:16 AM 0.000 0.000 0.000 0.000 0.000 Not Reported Not Reported
04/18/2019 02:05 PM 70.52 52.34 33.98 72.50 34.52 25.0 Not Reported 6.49 SE 7.61 SE 9.84 S No 0.000 No Precipitation 04/16/2019 04:11 AM 04/16/2019 04:16 AM 0.000 0.000 0.000 0.000 0.000 Not Reported Not Reported
04/18/2019 02:10 PM 70.16 52.16 33.62 72.50 34.52 25.0 Not Reported 6.04 E 6.26 E 7.61 SE No 0.000 No Precipitation 04/16/2019 04:11 AM 04/16/2019 04:16 AM 0.000 0.000 0.000 0.000 0.000 Not Reported Not Reported
04/18/2019 02:15 PM 69.98 51.62 32.18 72.50 34.52 24.0 Not Reported 4.25 E 2.46 S 7.61 SE No 0.000 No Precipitation 04/16/2019 04:11 AM 04/16/2019 04:16 AM 0.000 0.000 0.000 0.000 0.000 Not Reported Not Reported
04/18/2019 02:20 PM 72.14 52.34 31.46 72.50 34.52 22.0 Not Reported 3.13 S 2.91 S 7.38 E No 0.000 No Precipitation 04/16/2019 04:11 AM 04/16/2019 04:16 AM 0.000 0.000 0.000 0.000 0.000 Not Reported Not Reported
04/18/2019 02:25 PM 73.40 53.24 32.54 73.40 34.52 22.0 Not Reported 2.24 S 3.36 W 7.38 E No 0.000 No Precipitation 04/16/2019 04:11 AM 04/16/2019 04:16 AM 0.000 0.000 0.000 0.000 0.000 Not Reported Not Reported
04/18/2019 02:30 PM 72.50 53.60 34.70 73.40 34.52 25.0 Not Reported 3.13 W 2.24 SW 5.59 S No 0.000 No Precipitation 04/16/2019 04:11 AM 04/16/2019 04:16 AM 0.000 0.000 0.000 0.000 0.000 Not Reported Not Reported
04/18/2019 02:35 PM 73.94 53.96 34.34 73.94 34.52 23.0 Not Reported 1.79 S 2.24 SW 5.59 S No 0.000 No Precipitation 04/16/2019 04:11 AM 04/16/2019 04:16 AM 0.000 0.000 0.000 0.000 0.000 Not Reported Not Reported
04/18/2019 02:40 PM 72.32 53.06 33.44 73.94 34.52 23.0 Not Reported 3.80 SE 3.13 SE 7.83 SE No 0.000 No Precipitation 04/16/2019 04:11 AM 04/16/2019 04:16 AM 0.000 0.000 0.000 0.000 0.000 Not Reported Not Reported
04/18/2019 02:45 PM 72.32 53.24 34.16 73.94 34.52 24.0 Not Reported 1.34 SE 3.80 E 7.83 SE No 0.000 No Precipitation 04/16/2019 04:11 AM 04/16/2019 04:16 AM 0.000 0.000 0.000 0.000 0.000 Not Reported Not Reported
04/18/2019 02:50 PM 73.58 54.32 36.14 73.94 34.52 25.0 Not Reported 3.80 S 3.36 S 5.59 S No 0.000 No Precipitation 04/16/2019 04:11 AM 04/16/2019 04:16 AM 0.000 0.000 0.000 0.000 0.000 Not Reported Not Reported
04/18/2019 02:55 PM 72.86 53.78 35.24 73.94 34.52 25.0 Not Reported 3.80 S 2.46 SW 5.59 S No 0.000 No Precipitation 04/16/2019 04:11 AM 04/16/2019 04:16 AM 0.000 0.000 0.000 0.000 0.000 Not Reported Not Reported
04/18/2019 03:00 PM 72.14 52.70 32.72 73.94 34.52 23.0 Not Reported 3.80 SE 1.34 E 7.38 S No 0.000 No Precipitation 04/16/2019 04:11 AM 04/16/2019 04:16 AM 0.000 0.000 0.000 0.000 0.000 Not Reported Not Reported
04/18/2019 03:05 PM 71.96 53.06 34.34 73.94 34.52 25.0 Not Reported 2.68 E 2.24 S 7.38 S No 0.000 No Precipitation 04/16/2019 04:11 AM 04/16/2019 04:16 AM 0.000 0.000 0.000 0.000 0.000 Not Reported Not Reported
04/18/2019 03:10 PM 73.40 52.88 31.64 74.66 34.52 21.0 Not Reported 4.70 S 3.36 SW 7.38 SW No 0.000 No Precipitation 04/16/2019 04:11 AM 04/16/2019 04:16 AM 0.000 0.000 0.000 0.000 0.000 Not Reported Not Reported
04/18/2019 03:15 PM 73.76 53.24 32.18 74.66 34.52 21.0 Not Reported 4.25 S 3.58 S 7.38 SW No 0.000 No Precipitation 04/16/2019 04:11 AM 04/16/2019 04:16 AM 0.000 0.000 0.000 0.000 0.000 Not Reported Not Reported
04/18/2019 03:20 PM 73.58 53.42 33.08 74.66 34.52 22.0 Not Reported 4.03 W 1.57 E 8.28 SW No 0.000 No Precipitation 04/16/2019 04:11 AM 04/16/2019 04:16 AM 0.000 0.000 0.000 0.000 0.000 Not Reported Not Reported
04/18/2019 03:25 PM 72.68 52.70 31.64 74.66 34.52 21.0 Not Reported 2.01 W 2.01 N 8.28 SW No 0.000 No Precipitation 04/16/2019 04:11 AM 04/16/2019 04:16 AM 0.000 0.000 0.000 0.000 0.000 Not Reported Not Reported
04/18/2019 03:30 PM 72.68 52.70 32.00 74.66 34.52 22.0 Not Reported 2.01 NW 2.24 NW 4.92 NW No 0.000 No Precipitation 04/16/2019 04:11 AM 04/16/2019 04:16 AM 0.000 0.000 0.000 0.000 0.000 Not Reported Not Reported
04/18/2019 03:35 PM 72.86 52.88 32.00 74.66 34.52 22.0 Not Reported 2.24 NE 1.34 S 4.92 NW No 0.000 No Precipitation 04/16/2019 04:11 AM 04/16/2019 04:16 AM 0.000 0.000 0.000 0.000 0.000 Not Reported Not Reported
04/18/2019 03:40 PM 72.68 52.70 32.00 74.66 34.52 22.0 Not Reported 4.70 NE 3.58 E 5.59 NE No 0.000 No Precipitation 04/16/2019 04:11 AM 04/16/2019 04:16 AM 0.000 0.000 0.000 0.000 0.000 Not Reported Not Reported
04/18/2019 03:45 PM 73.76 53.78 33.62 74.66 34.52 22.0 Not Reported 3.36 NE 1.34 S 5.59 NE No 0.000 No Precipitation 04/16/2019 04:11 AM 04/16/2019 04:16 AM 0.000 0.000 0.000 0.000 0.000 Not Reported Not Reported
04/18/2019 03:50 PM 74.12 53.96 33.80 74.66 34.52 22.0 Not Reported 3.36 S 2.91 SW 5.14 SW No 0.000 No Precipitation 04/16/2019 04:11 AM 04/16/2019 04:16 AM 0.000 0.000 0.000 0.000 0.000 Not Reported Not Reported
04/18/2019 03:55 PM 74.66 53.96 32.90 75.74 34.52 21.0 Not Reported 6.93 S 5.14 S 5.14 SW No 0.000 No Precipitation 04/16/2019 04:11 AM 04/16/2019 04:16 AM 0.000 0.000 0.000 0.000 0.000 Not Reported Not Reported
04/18/2019 04:00 PM 73.94 53.96 33.80 75.74 34.52 22.0 Not Reported 3.13 S 2.68 SE 8.50 SW No 0.000 No Precipitation 04/16/2019 04:11 AM 04/16/2019 04:16 AM 0.000 0.000 0.000 0.000 0.000 Not Reported Not Reported
04/18/2019 04:05 PM 74.12 53.24 31.46 75.74 34.52 20.0 Not Reported 3.36 NW 0.67 NW 8.50 SW No 0.000 No Precipitation 04/16/2019 04:11 AM 04/16/2019 04:16 AM 0.000 0.000 0.000 0.000 0.000 Not Reported Not Reported
04/18/2019 04:10 PM 75.02 53.96 32.72 75.74 34.52 21.0 Not Reported 4.70 SW 3.80 SW 9.84 SW No 0.000 No Precipitation 04/16/2019 04:11 AM 04/16/2019 04:16 AM 0.000 0.000 0.000 0.000 0.000 Not Reported Not Reported
04/18/2019 04:15 PM 76.10 54.86 34.34 76.10 34.52 21.0 Not Reported 5.82 SW 8.50 SW 9.84 SW No 0.000 No Precipitation 04/16/2019 04:11 AM 04/16/2019 04:16 AM 0.000 0.000 0.000 0.000 0.000 Not Reported Not Reported
04/18/2019 04:20 PM 75.20 53.96 32.54 76.28 34.52 20.0 Not Reported 3.80 SW 5.59 SW 11.18 SW No 0.000 No Precipitation 04/16/2019 04:11 AM 04/16/2019 04:16 AM 0.000 0.000 0.000 0.000 0.000 Not Reported Not Reported
04/18/2019 04:25 PM 74.48 53.42 31.64 76.28 34.52 20.0 Not Reported 2.24 W 1.34 NW 11.18 SW No 0.000 No Precipitation 04/16/2019 04:11 AM 04/16/2019 04:16 AM 0.000 0.000 0.000 0.000 0.000 Not Reported Not Reported
04/18/2019 04:30 PM 76.82 55.40 35.06 76.82 34.52 22.0 Not Reported 2.46 SW 4.70 SW 6.26 W No 0.000 No Precipitation 04/16/2019 04:11 AM 04/16/2019 04:16 AM 0.000 0.000 0.000 0.000 0.000 Not Reported Not Reported
04/18/2019 04:35 PM 75.56 54.50 33.80 76.82 34.52 21.0 Not Reported 3.80 SW 3.13 NW 6.26 W No 0.000 No Precipitation 04/16/2019 04:11 AM 04/16/2019 04:16 AM 0.000 0.000 0.000 0.000 0.000 Not Reported Not Reported
04/18/2019 04:40 PM 75.02 54.50 34.52 76.82 34.52 22.0 Not Reported 2.24 NW 2.24 N 4.92 SW No 0.000 No Precipitation 04/16/2019 04:11 AM 04/16/2019 04:16 AM 0.000 0.000 0.000 0.000 0.000 Not Reported Not Reported
04/18/2019 04:45 PM 74.12 54.14 34.70 76.82 34.52 23.0 Not Reported 2.68 N 2.01 NW 4.92 SW No 0.000 No Precipitation 04/16/2019 04:11 AM 04/16/2019 04:16 AM 0.000 0.000 0.000 0.000 0.000 Not Reported Not Reported
04/18/2019 04:50 PM 76.10 55.40 36.14 76.82 34.52 23.0 Not Reported 4.92 W 5.37 SW 7.38 W No 0.000 No Precipitation 04/16/2019 04:11 AM 04/16/2019 04:16 AM 0.000 0.000 0.000 0.000 0.000 Not Reported Not Reported
04/18/2019 04:55 PM 76.64 55.04 33.98 76.82 34.52 21.0 Not Reported 2.91 SW 4.47 SW 7.38 W No 0.000 No Precipitation 04/16/2019 04:11 AM 04/16/2019 04:16 AM 0.000 0.000 0.000 0.000 0.000 Not Reported Not Reported
04/18/2019 05:00 PM 76.10 54.86 33.98 76.82 34.52 21.0 Not Reported 4.47 W 5.59 W 5.59 W No 0.000 No Precipitation 04/16/2019 04:11 AM 04/16/2019 04:16 AM 0.000 0.000 0.000 0.000 0.000 Not Reported Not Reported
04/18/2019 05:05 PM 76.82 55.22 34.52 76.82 34.52 21.0 Not Reported 3.36 SW 10.07 SW 5.59 W No 0.000 No Precipitation 04/16/2019 04:11 AM 04/16/2019 04:16 AM 0.000 0.000 0.000 0.000 0.000 Not Reported Not Reported
04/18/2019 05:10 PM 76.10 55.22 35.42 77.00 34.52 22.0 Not Reported 6.49 SW 5.82 S 10.07 SW No 0.000 No Precipitation 04/16/2019 04:11 AM 04/16/2019 04:16 AM 0.000 0.000 0.000 0.000 0.000 Not Reported Not Reported
04/18/2019 05:15 PM 76.64 55.40 35.06 77.00 34.52 21.0 Not Reported 6.04 SW 6.71 W 10.07 SW No 0.000 No Precipitation 04/16/2019 04:11 AM 04/16/2019 04:16 AM 0.000 0.000 0.000 0.000 0.000 Not Reported Not Reported
04/18/2019 05:20 PM 75.20 54.50 34.52 77.00 34.52 22.0 Not Reported 4.25 SW 6.71 S 7.16 SW No 0.000 No Precipitation 04/16/2019 04:11 AM 04/16/2019 04:16 AM 0.000 0.000 0.000 0.000 0.000 Not Reported Not Reported
04/18/2019 05:25 PM 75.56 54.14 32.18 77.00 34.52 20.0 Not Reported 4.47 SW 3.13 SW 7.16 SW No 0.000 No Precipitation 04/16/2019 04:11 AM 04/16/2019 04:16 AM 0.000 0.000 0.000 0.000 0.000 Not Reported Not Reported
04/18/2019 05:30 PM 73.94 53.06 31.10 77.00 34.52 20.0 Not Reported 2.68 E 2.46 E 7.83 S No 0.000 No Precipitation 04/16/2019 04:11 AM 04/16/2019 04:16 AM 0.000 0.000 0.000 0.000 0.000 Not Reported Not Reported
04/18/2019 05:35 PM 75.02 53.78 32.00 77.00 34.52 20.0 Not Reported 0.67 SW 4.03 SE 7.83 S No 0.000 No Precipitation 04/16/2019 04:11 AM 04/16/2019 04:16 AM 0.000 0.000 0.000 0.000 0.000 Not Reported Not Reported
04/18/2019 05:40 PM 76.10 54.14 31.82 77.00 34.52 19.0 Not Reported 5.14 S 7.38 S 7.38 S No 0.000 No Precipitation 04/16/2019 04:11 AM 04/16/2019 04:16 AM 0.000 0.000 0.000 0.000 0.000 Not Reported Not Reported
04/18/2019 05:45 PM 73.76 52.88 30.92 77.00 34.52 20.0 Not Reported 3.36 S 4.25 E 7.38 S No 0.000 No Precipitation 04/16/2019 04:11 AM 04/16/2019 04:16 AM 0.000 0.000 0.000 0.000 0.000 Not Reported Not Reported
04/18/2019 05:50 PM 75.20 53.24 30.20 77.00 34.52 18.0 Not Reported 4.70 SW 5.37 SW 7.61 W No 0.000 No Precipitation 04/16/2019 04:11 AM 04/16/2019 04:16 AM 0.000 0.000 0.000 0.000 0.000 Not Reported Not Reported
04/18/2019 05:55 PM 76.82 54.68 32.54 77.18 34.52 19.0 Not Reported 3.80 S 4.47 S 7.61 W No 0.000 No Precipitation 04/16/2019 04:11 AM 04/16/2019 04:16 AM 0.000 0.000 0.000 0.000 0.000 Not Reported Not Reported
04/18/2019 06:00 PM 76.64 54.14 30.92 77.18 34.52 18.0 Not Reported 3.80 SW 4.47 SW 6.49 S No 0.000 No Precipitation 04/16/2019 04:11 AM 04/16/2019 04:16 AM 0.000 0.000 0.000 0.000 0.000 Not Reported Not Reported
04/18/2019 06:05 PM 77.36 54.50 31.64 77.36 34.52 18.0 Not Reported 5.59 SW 6.26 W 6.49 S No 0.000 No Precipitation 04/16/2019 04:11 AM 04/16/2019 04:16 AM 0.000 0.000 0.000 0.000 0.000 Not Reported Not Reported
04/18/2019 06:10 PM 75.38 53.42 30.38 77.36 34.52 18.0 Not Reported 4.03 W 5.14 W 7.16 W No 0.000 No Precipitation 04/16/2019 04:11 AM 04/16/2019 04:16 AM 0.000 0.000 0.000 0.000 0.000 Not Reported Not Reported
04/18/2019 06:15 PM 77.72 54.14 29.30 77.72 34.52 16.0 Not Reported 0.89 NW 1.34 W 7.16 W No 0.000 No Precipitation 04/16/2019 04:11 AM 04/16/2019 04:16 AM 0.000 0.000 0.000 0.000 0.000 Not Reported Not Reported
04/18/2019 06:20 PM 76.28 53.42 28.76 77.72 34.52 17.0 Not Reported 5.82 W 6.71 W 7.61 W No 0.000 No Precipitation 04/16/2019 04:11 AM 04/16/2019 04:16 AM 0.000 0.000 0.000 0.000 0.000 Not Reported Not Reported
04/18/2019 06:25 PM 75.74 53.78 31.28 77.72 34.52 19.0 Not Reported 2.68 SW 5.37 S 7.61 W No 0.000 No Precipitation 04/16/2019 04:11 AM 04/16/2019 04:16 AM 0.000 0.000 0.000 0.000 0.000 Not Reported Not Reported
04/18/2019 06:30 PM 75.02 53.24 30.02 77.72 34.52 18.0 Not Reported 1.34 SE 0.22 SE 6.04 SW No 0.000 No Precipitation 04/16/2019 04:11 AM 04/16/2019 04:16 AM 0.000 0.000 0.000 0.000 0.000 Not Reported Not Reported
04/18/2019 06:35 PM 75.38 53.06 29.12 77.72 34.52 18.0 Not Reported 2.24 SE 2.46 W 6.04 SW No 0.000 No Precipitation 04/16/2019 04:11 AM 04/16/2019 04:16 AM 0.000 0.000 0.000 0.000 0.000 Not Reported Not Reported
04/18/2019 06:40 PM 75.02 53.42 30.74 77.72 34.52 19.0 Not Reported 1.57 NW 1.34 S 4.92 SW No 0.000 No Precipitation 04/16/2019 04:11 AM 04/16/2019 04:16 AM 0.000 0.000 0.000 0.000 0.000 Not Reported Not Reported
04/18/2019 06:45 PM 75.92 53.96 31.46 77.72 34.52 19.0 Not Reported 2.01 SW 2.68 SW 4.92 SW No 0.000 No Precipitation 04/16/2019 04:11 AM 04/16/2019 04:16 AM 0.000 0.000 0.000 0.000 0.000 Not Reported Not Reported
04/18/2019 06:50 PM 75.38 53.96 32.36 77.72 34.52 20.0 Not Reported 3.58 SE 5.14 S 6.93 S No 0.000 No Precipitation 04/16/2019 04:11 AM 04/16/2019 04:16 AM 0.000 0.000 0.000 0.000 0.000 Not Reported Not Reported
04/18/2019 06:55 PM 75.02 53.06 29.84 77.72 34.52 18.0 Not Reported 6.49 SW 3.58 S 6.93 S No 0.000 No Precipitation 04/16/2019 04:11 AM 04/16/2019 04:16 AM 0.000 0.000 0.000 0.000 0.000 Not Reported Not Reported
04/18/2019 07:00 PM 74.66 52.88 29.48 77.72 34.52 18.0 Not Reported 2.01 S 2.24 S 8.05 W No 0.000 No Precipitation 04/16/2019 04:11 AM 04/16/2019 04:16 AM 0.000 0.000 0.000 0.000 0.000 Not Reported Not Reported
04/18/2019 07:05 PM 75.02 53.24 30.02 77.72 34.52 18.0 Not Reported 0.45 S 1.79 SE 8.05 W No 0.000 No Precipitation 04/16/2019 04:11 AM 04/16/2019 04:16 AM 0.000 0.000 0.000 0.000 0.000 Not Reported Not Reported
04/18/2019 07:10 PM 75.02 53.06 29.84 77.72 34.52 18.0 Not Reported 0.89 E 0.00 S 3.58 E No 0.000 No Precipitation 04/16/2019 04:11 AM 04/16/2019 04:16 AM 0.000 0.000 0.000 0.000 0.000 Not Reported Not Reported
04/18/2019 07:15 PM 74.84 52.88 29.66 77.72 34.52 18.0 Not Reported 1.79 SE 1.57 SE 3.58 E No 0.000 No Precipitation 04/16/2019 04:11 AM 04/16/2019 04:16 AM 0.000 0.000 0.000 0.000 0.000 Not Reported Not Reported
04/18/2019 07:20 PM 75.20 53.42 30.38 77.72 34.52 18.0 Not Reported 2.68 S 3.36 S 3.36 S No 0.000 No Precipitation 04/16/2019 04:11 AM 04/16/2019 04:16 AM 0.000 0.000 0.000 0.000 0.000 Not Reported Not Reported
04/18/2019 07:25 PM 75.38 53.96 32.36 77.72 34.52 20.0 Not Reported 2.01 S 3.13 SW 3.36 S No 0.000 No Precipitation 04/16/2019 04:11 AM 04/16/2019 04:16 AM 0.000 0.000 0.000 0.000 0.000 Not Reported Not Reported
04/18/2019 07:30 PM 74.84 53.42 31.28 77.72 34.52 19.0 Not Reported 5.14 SW 3.80 SW 6.49 S No 0.000 No Precipitation 04/16/2019 04:11 AM 04/16/2019 04:16 AM 0.000 0.000 0.000 0.000 0.000 Not Reported Not Reported
04/18/2019 07:35 PM 75.02 54.14 33.44 77.72 34.52 21.0 Not Reported 2.91 S 3.13 SW 6.49 S No 0.000 No Precipitation 04/16/2019 04:11 AM 04/16/2019 04:16 AM 0.000 0.000 0.000 0.000 0.000 Not Reported Not Reported
04/18/2019 07:40 PM 74.48 53.78 33.08 77.72 34.52 21.0 Not Reported 6.26 SW 5.59 W 7.16 SW No 0.000 No Precipitation 04/16/2019 04:11 AM 04/16/2019 04:16 AM 0.000 0.000 0.000 0.000 0.000 Not Reported Not Reported
04/18/2019 07:45 PM 74.66 53.78 32.72 77.72 34.52 21.0 Not Reported 3.36 SW 1.57 SW 7.16 SW No 0.000 No Precipitation 04/16/2019 04:11 AM 04/16/2019 04:16 AM 0.000 0.000 0.000 0.000 0.000 Not Reported Not Reported
04/18/2019 07:50 PM 74.12 53.24 31.82 77.72 34.52 20.0 Not Reported 1.12 S 0.45 SE 4.25 SW No 0.000 No Precipitation 04/16/2019 04:11 AM 04/16/2019 04:16 AM 0.000 0.000 0.000 0.000 0.000 Not Reported Not Reported
04/18/2019 07:55 PM 74.30 53.96 34.16 77.72 34.52 23.0 Not Reported 4.03 SW 2.68 S 4.25 SW No 0.000 No Precipitation 04/16/2019 04:11 AM 04/16/2019 04:16 AM 0.000 0.000 0.000 0.000 0.000 Not Reported Not Reported
04/18/2019 08:00 PM 74.48 53.60 32.18 77.72 34.52 21.0 Not Reported 1.79 SW 2.46 SW 4.47 SW No 0.000 No Precipitation 04/16/2019 04:11 AM 04/16/2019 04:16 AM 0.000 0.000 0.000 0.000 0.000 Not Reported Not Reported
04/18/2019 08:05 PM 73.94 53.42 32.72 77.72 34.52 22.0 Not Reported 2.01 S 2.01 SW 4.47 SW No 0.000 No Precipitation 04/16/2019 04:11 AM 04/16/2019 04:16 AM 0.000 0.000 0.000 0.000 0.000 Not Reported Not Reported
04/18/2019 08:10 PM 73.58 53.60 33.80 77.72 34.52 23.0 Not Reported 3.13 SW 3.80 SW 3.80 SW No 0.000 No Precipitation 04/16/2019 04:11 AM 04/16/2019 04:16 AM 0.000 0.000 0.000 0.000 0.000 Not Reported Not Reported
04/18/2019 08:15 PM 72.32 53.42 34.88 77.72 34.52 25.0 Not Reported 2.91 SW 4.25 S 3.80 SW No 0.000 No Precipitation 04/16/2019 04:11 AM 04/16/2019 04:16 AM 0.000 0.000 0.000 0.000 0.000 Not Reported Not Reported
04/18/2019 08:20 PM 71.42 52.88 34.52 77.72 34.52 25.0 Not Reported 2.91 S 3.13 S 5.82 SW No 0.000 No Precipitation 04/16/2019 04:11 AM 04/16/2019 04:16 AM 0.000 0.000 0.000 0.000 0.000 Not Reported Not Reported
04/18/2019 08:25 PM 70.34 52.52 34.70 77.72 34.52 26.0 Not Reported 3.80 S 2.91 S 5.82 SW No 0.000 No Precipitation 04/16/2019 04:11 AM 04/16/2019 04:16 AM 0.000 0.000 0.000 0.000 0.000 Not Reported Not Reported
04/18/2019 08:30 PM 69.08 52.16 35.24 77.72 34.52 28.0 Not Reported 4.92 SW 4.47 SW 5.37 S No 0.000 No Precipitation 04/16/2019 04:11 AM 04/16/2019 04:16 AM 0.000 0.000 0.000 0.000 0.000 Not Reported Not Reported
04/18/2019 08:35 PM 68.00 51.62 34.70 77.72 34.52 29.0 Not Reported 3.80 SW 4.92 SW 5.37 S No 0.000 No Precipitation 04/16/2019 04:11 AM 04/16/2019 04:16 AM 0.000 0.000 0.000 0.000 0.000 Not Reported Not Reported
04/18/2019 08:40 PM 67.64 51.26 34.70 77.72 34.52 29.0 Not Reported 3.80 SW 3.36 SW 5.37 S No 0.000 No Precipitation 04/16/2019 04:11 AM 04/16/2019 04:16 AM 0.000 0.000 0.000 0.000 0.000 Not Reported Not Reported
04/18/2019 08:45 PM 67.28 51.26 34.70 77.72 34.52 29.0 Not Reported 2.91 SW 3.13 SW 5.37 S No 0.000 No Precipitation 04/16/2019 04:11 AM 04/16/2019 04:16 AM 0.000 0.000 0.000 0.000 0.000 Not Reported Not Reported
04/18/2019 08:50 PM 66.74 50.90 34.70 77.72 34.52 30.0 Not Reported 1.79 W 1.79 W 3.36 SW No 0.000 No Precipitation 04/16/2019 04:11 AM 04/16/2019 04:16 AM 0.000 0.000 0.000 0.000 0.000 Not Reported Not Reported
04/18/2019 08:55 PM 66.38 50.90 34.88 77.72 34.52 31.0 Not Reported 2.46 SW 2.46 SW 3.36 SW No 0.000 No Precipitation 04/16/2019 04:11 AM 04/16/2019 04:16 AM 0.000 0.000 0.000 0.000 0.000 Not Reported Not Reported
04/18/2019 09:00 PM 65.84 50.72 35.06 77.72 34.52 31.0 Not Reported 3.13 SW 3.36 SW 3.36 SW No 0.000 No Precipitation 04/16/2019 04:11 AM 04/16/2019 04:16 AM 0.000 0.000 0.000 0.000 0.000 Not Reported Not Reported
04/18/2019 09:05 PM 64.76 50.18 35.06 77.72 34.52 33.0 Not Reported 3.58 SW 4.03 SW 3.36 SW No 0.000 No Precipitation 04/16/2019 04:11 AM 04/16/2019 04:16 AM 0.000 0.000 0.000 0.000 0.000 Not Reported Not Reported
04/18/2019 09:10 PM 64.40 50.00 34.88 77.72 34.52 33.0 Not Reported 3.36 SW 3.58 SW 4.25 SW No 0.000 No Precipitation 04/16/2019 04:11 AM 04/16/2019 04:16 AM 0.000 0.000 0.000 0.000 0.000 Not Reported Not Reported
04/18/2019 09:15 PM 64.58 50.00 34.52 77.72 34.52 32.0 Not Reported 3.36 SW 3.80 SW 4.25 SW No 0.000 No Precipitation 04/16/2019 04:11 AM 04/16/2019 04:16 AM 0.000 0.000 0.000 0.000 0.000 Not Reported Not Reported
04/18/2019 09:20 PM 64.04 49.82 35.06 77.72 34.52 33.0 Not Reported 3.80 SW 4.03 SW 4.47 SW No 0.000 No Precipitation 04/16/2019 04:11 AM 04/16/2019 04:16 AM 0.000 0.000 0.000 0.000 0.000 Not Reported Not Reported
04/18/2019 09:25 PM 63.50 49.64 35.06 77.72 34.52 34.0 Not Reported 3.13 SW 2.91 S 4.47 SW No 0.000 No Precipitation 04/16/2019 04:11 AM 04/16/2019 04:16 AM 0.000 0.000 0.000 0.000 0.000 Not Reported Not Reported
04/18/2019 09:30 PM 63.32 49.46 34.88 77.72 34.52 34.0 Not Reported 3.58 S 3.13 S 4.03 SW No 0.000 No Precipitation 04/16/2019 04:11 AM 04/16/2019 04:16 AM 0.000 0.000 0.000 0.000 0.000 Not Reported Not Reported
04/18/2019 09:35 PM 62.60 49.28 35.60 77.72 34.52 36.0 Not Reported 2.91 SW 2.91 S 4.03 SW No 0.000 No Precipitation 04/16/2019 04:11 AM 04/16/2019 04:16 AM 0.000 0.000 0.000 0.000 0.000 Not Reported Not Reported
04/18/2019 09:40 PM 61.34 48.92 35.96 77.72 34.52 38.0 Not Reported 2.91 SW 2.91 S 3.80 S No 0.000 No Precipitation 04/16/2019 04:11 AM 04/16/2019 04:16 AM 0.000 0.000 0.000 0.000 0.000 Not Reported Not Reported
04/18/2019 09:45 PM 60.08 48.38 35.96 77.72 34.52 40.0 Not Reported 2.46 S 3.58 S 3.80 S No 0.000 No Precipitation 04/16/2019 04:11 AM 04/16/2019 04:16 AM 0.000 0.000 0.000 0.000 0.000 Not Reported Not Reported
04/18/2019 09:50 PM 59.54 48.02 35.78 77.72 34.52 40.0 Not Reported 2.01 S 2.01 SW 3.58 S No 0.000 No Precipitation 04/16/2019 04:11 AM 04/16/2019 04:16 AM 0.000 0.000 0.000 0.000 0.000 Not Reported Not Reported
04/18/2019 09:55 PM 59.00 48.02 36.50 77.72 34.52 42.0 Not Reported 2.68 S 2.24 S 3.58 S No 0.000 No Precipitation 04/16/2019 04:11 AM 04/16/2019 04:16 AM 0.000 0.000 0.000 0.000 0.000 Not Reported Not Reported
04/18/2019 10:00 PM 58.10 47.66 36.32 77.72 34.52 44.0 Not Reported 2.24 S 2.24 S 3.13 S No 0.000 No Precipitation 04/16/2019 04:11 AM 04/16/2019 04:16 AM 0.000 0.000 0.000 0.000 0.000 Not Reported Not Reported
04/18/2019 10:05 PM 58.28 47.66 36.50 77.72 34.52 43.0 Not Reported 2.01 S 2.01 S 3.13 S No 0.000 No Precipitation 04/16/2019 04:11 AM 04/16/2019 04:16 AM 0.000 0.000 0.000 0.000 0.000 Not Reported Not Reported
04/18/2019 10:10 PM 57.74 47.48 36.68 77.72 34.52 45.0 Not Reported 2.01 S 2.46 S 2.46 S No 0.000 No Precipitation 04/16/2019 04:11 AM 04/16/2019 04:16 AM 0.000 0.000 0.000 0.000 0.000 Not Reported Not Reported
04/18/2019 10:15 PM 57.56 47.48 36.86 77.72 34.52 45.0 Not Reported 1.57 S 1.34 S 2.46 S No 0.000 No Precipitation 04/16/2019 04:11 AM 04/16/2019 04:16 AM 0.000 0.000 0.000 0.000 0.000 Not Reported Not Reported
04/18/2019 10:20 PM 57.02 47.12 36.68 77.72 34.52 46.0 Not Reported 1.57 SE 1.57 SE 2.24 S No 0.000 No Precipitation 04/16/2019 04:11 AM 04/16/2019 04:16 AM 0.000 0.000 0.000 0.000 0.000 Not Reported Not Reported
04/18/2019 10:25 PM 56.30 46.76 36.86 77.72 34.52 47.0 Not Reported 2.46 S 1.12 S 2.24 S No 0.000 No Precipitation 04/16/2019 04:11 AM 04/16/2019 04:16 AM 0.000 0.000 0.000 0.000 0.000 Not Reported Not Reported
04/18/2019 10:30 PM 55.22 46.58 37.22 77.72 34.52 50.0 Not Reported 2.46 S 2.46 S 2.91 S No 0.000 No Precipitation 04/16/2019 04:11 AM 04/16/2019 04:16 AM 0.000 0.000 0.000 0.000 0.000 Not Reported Not Reported
04/18/2019 10:35 PM 56.30 46.94 36.68 77.72 34.52 47.0 Not Reported 2.46 S 2.68 S 2.91 S No 0.000 No Precipitation 04/16/2019 04:11 AM 04/16/2019 04:16 AM 0.000 0.000 0.000 0.000 0.000 Not Reported Not Reported
04/18/2019 10:40 PM 56.66 46.94 36.32 77.72 34.52 46.0 Not Reported 1.79 S 2.01 S 2.91 S No 0.000 No Precipitation 04/16/2019 04:11 AM 04/16/2019 04:16 AM 0.000 0.000 0.000 0.000 0.000 Not Reported Not Reported
04/18/2019 10:45 PM 54.86 46.04 36.68 77.72 34.52 50.0 Not Reported 2.91 S 3.13 S 2.91 S No 0.000 No Precipitation 04/16/2019 04:11 AM 04/16/2019 04:16 AM 0.000 0.000 0.000 0.000 0.000 Not Reported Not Reported
04/18/2019 10:50 PM 54.32 45.86 36.68 77.72 34.52 51.0 Not Reported 2.91 S 2.91 S 3.13 S No 0.000 No Precipitation 04/16/2019 04:11 AM 04/16/2019 04:16 AM 0.000 0.000 0.000 0.000 0.000 Not Reported Not Reported
04/18/2019 10:55 PM 54.32 45.86 36.68 77.72 34.52 50.0 Not Reported 3.13 S 3.36 SW 3.13 S No 0.000 No Precipitation 04/16/2019 04:11 AM 04/16/2019 04:16 AM 0.000 0.000 0.000 0.000 0.000 Not Reported Not Reported
04/18/2019 11:00 PM 55.22 46.04 35.78 77.72 34.52 47.0 Not Reported 4.70 S 5.14 SW 5.14 SW No 0.000 No Precipitation 04/16/2019 04:11 AM 04/16/2019 04:16 AM 0.000 0.000 0.000 0.000 0.000 Not Reported Not Reported
04/18/2019 11:05 PM 57.38 46.94 35.78 77.72 34.52 44.0 Not Reported 4.70 SW 5.37 S 5.14 SW No 0.000 No Precipitation 04/16/2019 04:11 AM 04/16/2019 04:16 AM 0.000 0.000 0.000 0.000 0.000 Not Reported Not Reported
04/18/2019 11:10 PM 57.20 46.94 35.78 77.72 34.52 44.0 Not Reported 4.25 SW 4.03 S 5.59 S No 0.000 No Precipitation 04/16/2019 04:11 AM 04/16/2019 04:16 AM 0.000 0.000 0.000 0.000 0.000 Not Reported Not Reported
04/18/2019 11:15 PM 55.40 46.40 36.68 77.72 34.52 49.0 Not Reported 4.03 S 3.80 S 5.59 S No 0.000 No Precipitation 04/16/2019 04:11 AM 04/16/2019 04:16 AM 0.000 0.000 0.000 0.000 0.000 Not Reported Not Reported
04/18/2019 11:20 PM 54.14 45.68 36.50 77.72 34.52 51.0 Not Reported 3.36 S 3.36 S 4.25 S No 0.000 No Precipitation 04/16/2019 04:11 AM 04/16/2019 04:16 AM 0.000 0.000 0.000 0.000 0.000 Not Reported Not Reported
04/18/2019 11:25 PM 54.68 46.04 36.32 77.72 34.52 49.0 Not Reported 2.24 S 2.91 S 4.25 S No 0.000 No Precipitation 04/16/2019 04:11 AM 04/16/2019 04:16 AM 0.000 0.000 0.000 0.000 0.000 Not Reported Not Reported
04/18/2019 11:30 PM 53.78 45.68 36.50 77.72 34.52 51.0 Not Reported 3.13 S 3.13 S 3.36 S No 0.000 No Precipitation 04/16/2019 04:11 AM 04/16/2019 04:16 AM 0.000 0.000 0.000 0.000 0.000 Not Reported Not Reported
04/18/2019 11:35 PM 52.70 44.96 36.68 77.72 34.52 54.0 Not Reported 2.46 S 2.91 S 3.36 S No 0.000 No Precipitation 04/16/2019 04:11 AM 04/16/2019 04:16 AM 0.000 0.000 0.000 0.000 0.000 Not Reported Not Reported
04/18/2019 11:40 PM 52.88 45.14 36.68 77.72 34.52 54.0 Not Reported 2.24 S 2.24 S 3.13 S No 0.000 No Precipitation 04/16/2019 04:11 AM 04/16/2019 04:16 AM 0.000 0.000 0.000 0.000 0.000 Not Reported Not Reported
04/18/2019 11:45 PM 52.34 44.96 36.68 77.72 34.52 54.0 Not Reported 2.46 S 2.46 S 3.13 S No 0.000 No Precipitation 04/16/2019 04:11 AM 04/16/2019 04:16 AM 0.000 0.000 0.000 0.000 0.000 Not Reported Not Reported
04/18/2019 11:50 PM 52.52 44.96 36.50 77.72 34.52 54.0 Not Reported 2.24 S 1.79 S 2.91 S No 0.000 No Precipitation 04/16/2019 04:11 AM 04/16/2019 04:16 AM 0.000 0.000 0.000 0.000 0.000 Not Reported Not Reported
04/18/2019 11:55 PM 52.16 44.78 36.68 77.72 34.52 55.0 Not Reported 3.36 S 3.36 S 2.91 S No 0.000 No Precipitation 04/16/2019 04:11 AM 04/16/2019 04:16 AM 0.000 0.000 0.000 0.000 0.000 Not Reported Not Reported